Time;durP1;ratioP1;P1;durP2;ratioP2;P2;SDS_P1;SDS_P2;PMS_P1;PMS_P2;Temp;Humidity;BMP_temperature;BMP_pressure;BME280_temperature;BME280_humidity;BME280_pressure;Samples;Min_cycle;Max_cycle;Signal;HPM_P1;HPM_P2
2020/12/03 00:00:48;;;;;;;27.03;11.83;;;;;;;-2.88;77.56;101421.33;1740805;81;21802;-70
2020/12/03 00:03:30;;;;;;;27.07;11.83;;;;;;;-2.85;77.21;101425.09;1745104;81;21132;-72
2020/12/03 00:06:26;;;;;;;27.93;11.33;;;;;;;-2.84;77.44;101421.44;1716475;82;21353;-69
2020/12/03 00:09:08;;;;;;;29.77;12.60;;;;;;;-2.84;77.33;101423.64;1720139;81;21628;-74
2020/12/03 00:11:40;;;;;;;30.57;12.50;;;;;;;-2.82;77.27;101419.47;1749642;82;21219;-73
2020/12/03 00:14:07;;;;;;;27.00;11.87;;;;;;;-2.82;77.39;101418.12;1750052;81;21090;-72
2020/12/03 00:16:35;;;;;;;30.25;12.05;;;;;;;-2.81;77.22;101423.86;1747911;82;21631;-72
2020/12/03 00:19:04;;;;;;;25.37;11.90;;;;;;;-2.82;77.17;101416.31;1701881;82;21133;-72
2020/12/03 00:21:46;;;;;;;27.37;12.60;;;;;;;-2.80;77.23;101406.78;1747064;82;21188;-71
2020/12/03 00:24:18;;;;;;;27.30;12.03;;;;;;;-2.77;77.15;101406.52;1730857;82;21696;-74
2020/12/03 00:26:45;;;;;;;28.17;12.13;;;;;;;-2.76;77.52;101398.85;1717985;81;21466;-70
2020/12/03 00:29:13;;;;;;;31.52;12.78;;;;;;;-2.74;77.24;101403.58;1704743;83;21101;-74
2020/12/03 00:31:45;;;;;;;27.80;11.83;;;;;;;-2.76;77.32;101406.89;1714965;84;21213;-74
2020/12/03 00:34:13;;;;;;;25.17;11.70;;;;;;;-2.76;77.33;101404.21;1712613;83;21236;-73
2020/12/03 00:36:41;;;;;;;28.80;11.90;;;;;;;-2.76;77.31;101401.53;1700679;83;21175;-72
2020/12/03 00:39:13;;;;;;;25.02;11.65;;;;;;;-2.78;77.51;101394.09;1700333;83;21568;-73
2020/12/03 00:41:46;;;;;;;29.63;11.83;;;;;;;-2.80;77.09;101405.44;1722424;83;21152;-72
2020/12/03 00:44:14;;;;;;;27.90;12.30;;;;;;;-2.85;77.45;101395.14;1701154;83;21136;-71
2020/12/03 00:46:41;;;;;;;30.40;11.55;;;;;;;-2.86;77.64;101406.00;1703505;82;21188;-72
2020/12/03 00:49:09;;;;;;;26.77;13.20;;;;;;;-2.88;77.48;101399.42;1696505;83;21140;-76
2020/12/03 00:51:37;;;;;;;28.47;13.05;;;;;;;-2.89;77.83;101403.10;1720516;81;21144;-71
2020/12/03 00:54:06;;;;;;;;;;;;;;;-2.88;77.80;101394.55;1727046;83;21589;-73
2020/12/03 00:56:34;;;;;;;27.00;11.88;;;;;;;-2.87;77.67;101384.20;1723694;81;20214;-72
2020/12/03 00:59:02;;;;;;;24.20;10.57;;;;;;;-2.88;77.92;101383.83;1716231;83;21180;-74
2020/12/03 01:01:30;;;;;;;28.67;12.37;;;;;;;-2.88;77.85;101379.81;1716497;81;21600;-73
2020/12/03 01:03:58;;;;;;;27.45;11.38;;;;;;;-2.89;77.57;101380.81;1705966;82;21123;-72
2020/12/03 01:06:26;;;;;;;27.82;11.85;;;;;;;-2.89;77.70;101388.85;1721292;82;21177;-72
2020/12/03 01:08:54;;;;;;;26.97;11.60;;;;;;;-2.91;77.59;101378.77;1702255;84;21141;-73
2020/12/03 01:11:22;;;;;;;29.35;11.12;;;;;;;-2.94;77.41;101373.67;1707175;82;21706;-73
2020/12/03 01:13:51;;;;;;;31.20;12.63;;;;;;;-2.96;77.35;101366.27;1705311;82;21686;-72
2020/12/03 01:16:19;;;;;;;24.07;10.95;;;;;;;-2.92;77.58;101366.34;1735291;82;21117;-72
2020/12/03 01:18:47;;;;;;;;;;;;;;;-2.91;77.11;101365.37;1705715;83;21168;-73
2020/12/03 01:21:19;;;;;;;20.92;9.93;;;;;;;-2.97;77.15;101366.76;1731427;83;20470;-74
2020/12/03 01:23:48;;;;;;;28.77;11.27;;;;;;;-3.01;77.33;101359.95;1703093;83;21239;-75
2020/12/03 01:26:18;;;;;;;24.07;10.40;;;;;;;-3.03;77.36;101363.75;1701926;84;21256;-75
2020/12/03 01:28:47;;;;;;;23.63;10.40;;;;;;;-3.03;77.55;101363.75;1706128;83;21149;-75
2020/12/03 01:31:14;;;;;;;;;;;;;;;-2.96;77.57;101368.95;1706187;84;21128;-75
2020/12/03 01:33:42;;;;;;;22.05;9.55;;;;;;;-2.93;77.06;101356.12;1717991;81;20247;-75
2020/12/03 01:36:12;;;;;;;23.38;10.58;;;;;;;-2.93;76.55;101349.91;1715432;84;21141;-75
2020/12/03 01:38:41;;;;;;;23.37;9.90;;;;;;;-2.92;76.55;101353.81;1732990;81;21137;-74
2020/12/03 01:41:09;;;;;;;23.40;10.80;;;;;;;-2.90;76.60;101346.96;1750720;82;21141;-73
2020/12/03 01:43:43;;;;;;;25.48;10.88;;;;;;;-2.89;76.17;101354.03;1749250;81;21235;-75
2020/12/03 01:46:11;;;;;;;23.73;9.73;;;;;;;-2.91;76.35;101361.36;1726917;82;21133;-73
2020/12/03 01:48:48;;;;;;;26.65;10.43;;;;;;;-2.89;76.61;101365.60;1719861;83;21579;-72
2020/12/03 01:51:27;;;;;;;25.95;10.48;;;;;;;-2.85;76.82;101352.77;1702876;84;21184;-72
2020/12/03 01:53:58;;;;;;;23.93;9.77;;;;;;;-2.83;76.63;101352.98;1708703;83;21569;-72
2020/12/03 01:56:54;;;;;;;29.00;10.77;;;;;;;-2.83;76.23;101347.62;1722549;83;21251;-71
2020/12/03 01:59:23;;;;;;;22.27;10.33;;;;;;;-2.89;76.18;101356.70;1693970;84;21631;-71
2020/12/03 02:01:55;;;;;;;24.27;10.70;;;;;;;-2.96;76.62;101355.05;1745797;81;21125;-76
2020/12/03 02:04:23;;;;;;;21.10;10.43;;;;;;;-2.93;76.64;101351.25;1746526;82;21180;-74
2020/12/03 02:07:05;;;;;;;24.63;10.43;;;;;;;-2.92;76.43;101356.97;1686150;83;21710;-73
2020/12/03 02:09:34;;;;;;;24.97;10.30;;;;;;;-2.95;76.15;101357.23;1696978;82;21113;-74
2020/12/03 02:12:04;;;;;;;25.57;10.97;;;;;;;-2.95;76.32;101361.25;1746010;82;21164;-74
2020/12/03 02:14:32;;;;;;;21.48;10.23;;;;;;;-2.93;76.28;101353.92;1730376;82;21176;-72
2020/12/03 02:17:00;;;;;;;26.37;11.57;;;;;;;-2.91;76.25;101359.50;1711811;83;21248;-72
2020/12/03 02:19:31;;;;;;;25.35;10.28;;;;;;;-2.89;75.84;101367.42;1747506;82;21585;-71
2020/12/03 02:22:05;;;;;;;25.63;10.53;;;;;;;-2.87;76.00;101369.47;1752606;81;21169;-74
2020/12/03 02:24:39;;;;;;;26.73;11.30;;;;;;;-2.88;75.91;101366.42;1750878;82;21588;-71
2020/12/03 02:27:09;;;;;;;22.03;9.80;;;;;;;-2.86;75.83;101359.95;1741269;81;21164;-74
2020/12/03 02:29:37;;;;;;;22.57;9.40;;;;;;;-2.85;75.54;101364.33;1733979;82;21596;-74
2020/12/03 02:32:05;;;;;;;24.15;10.75;;;;;;;-2.84;75.68;101363.36;1725021;81;21201;-74
2020/12/03 02:34:33;;;;;;;22.27;9.73;;;;;;;-2.83;75.64;101357.00;1708852;83;21153;-75
2020/12/03 02:37:01;;;;;;;21.73;10.20;;;;;;;-2.80;75.58;101362.58;1712206;82;21125;-74
2020/12/03 02:39:30;;;;;;;22.95;9.13;;;;;;;-2.83;75.14;101362.84;1738394;82;21264;-73
2020/12/03 02:42:00;;;;;;;25.23;9.77;;;;;;;-2.84;75.28;101367.87;1715396;82;21654;-72
2020/12/03 02:44:29;;;;;;;22.47;10.30;;;;;;;-2.86;75.17;101368.50;1725035;83;21216;-74
2020/12/03 02:46:56;;;;;;;25.50;10.25;;;;;;;-2.89;75.00;101362.92;1719082;82;21112;-74
2020/12/03 02:49:24;;;;;;;22.85;9.40;;;;;;;-2.87;75.21;101356.08;1708241;82;21133;-74
2020/12/03 02:51:55;;;;;;;22.03;10.13;;;;;;;-2.87;74.79;101348.04;1708208;82;21529;-72
2020/12/03 02:54:23;;;;;;;22.13;9.45;;;;;;;-2.90;74.38;101353.17;1707397;84;21148;-74
2020/12/03 02:56:50;;;;;;;21.23;9.18;;;;;;;-2.93;74.65;101358.80;1709818;82;21136;-73
2020/12/03 02:59:18;;;;;;;23.27;8.73;;;;;;;-2.96;74.49;101355.05;1726215;82;21596;-74
2020/12/03 03:01:46;;;;;;;22.30;9.60;;;;;;;-2.97;73.86;101360.55;1737287;82;21148;-74
2020/12/03 03:04:14;;;;;;;18.77;8.18;;;;;;;-2.98;73.90;101357.50;1725491;82;21639;-74
2020/12/03 03:06:42;;;;;;;19.92;8.73;;;;;;;-3.00;73.36;101360.81;1730711;82;21213;-71
2020/12/03 03:09:09;;;;;;;18.12;8.03;;;;;;;-3.02;73.23;101362.30;1720602;82;21124;-73
2020/12/03 03:11:38;;;;;;;17.85;8.15;;;;;;;-3.02;73.17;101359.62;1711552;83;21576;-71
2020/12/03 03:14:05;;;;;;;20.82;7.97;;;;;;;-3.04;73.06;101358.91;1743405;81;21525;-73
2020/12/03 03:16:33;;;;;;;23.27;9.18;;;;;;;-3.00;73.52;101358.13;1755498;82;21227;-75
2020/12/03 03:19:01;;;;;;;23.87;9.38;;;;;;;-3.00;73.52;101358.13;1743035;81;21180;-72
2020/12/03 03:21:30;;;;;;;20.55;8.80;;;;;;;-2.96;73.66;101367.61;1719483;83;21621;-73
2020/12/03 03:23:58;;;;;;;20.17;8.33;;;;;;;-2.95;73.38;101367.47;1708397;83;21573;-75
2020/12/03 03:26:26;;;;;;;19.52;8.50;;;;;;;-2.95;73.35;101363.93;1729271;83;21152;-73
2020/12/03 03:28:54;;;;;;;20.17;8.85;;;;;;;-2.96;72.96;101361.73;1711736;83;21157;-71
2020/12/03 03:31:23;;;;;;;21.00;8.13;;;;;;;-2.96;73.20;101360.40;1714979;84;21263;-72
2020/12/03 03:33:50;;;;;;;19.55;7.83;;;;;;;-2.98;72.13;101354.82;1707944;83;21173;-71
2020/12/03 03:36:18;;;;;;;27.37;9.30;;;;;;;-3.00;72.38;101360.81;1700352;84;21405;-73
2020/12/03 03:38:46;;;;;;;22.17;9.13;;;;;;;-3.00;72.34;101352.78;1706646;83;21164;-72
2020/12/03 03:41:13;;;;;;;20.15;8.93;;;;;;;-3.01;71.90;101355.12;1720325;81;21161;-74
2020/12/03 03:43:41;;;;;;;25.00;8.93;;;;;;;-3.01;72.07;101356.45;1706217;83;21137;-71
2020/12/03 03:46:09;;;;;;;23.67;9.23;;;;;;;-3.02;72.14;101358.77;1717023;83;21137;-71
2020/12/03 03:48:36;;;;;;;18.45;8.70;;;;;;;-3.01;72.40;101353.78;1700370;84;21624;-76
2020/12/03 03:51:05;;;;;;;19.70;8.93;;;;;;;-2.99;72.33;101353.14;1718093;83;21232;-75
2020/12/03 03:53:33;;;;;;;26.50;9.93;;;;;;;-2.98;72.14;101357.02;1729236;83;21152;-71
2020/12/03 03:56:02;;;;;;;23.47;9.43;;;;;;;-2.97;72.10;101349.83;1713749;83;21208;-71
2020/12/03 03:58:30;;;;;;;22.13;8.75;;;;;;;-2.98;72.03;101348.98;1700676;83;21658;-73
2020/12/03 04:00:58;;;;;;;23.45;8.60;;;;;;;-3.00;72.52;101358.98;1725749;83;21637;-71
2020/12/03 04:03:26;;;;;;;26.97;9.65;;;;;;;-3.01;71.98;101361.81;1719168;83;21102;-71
2020/12/03 04:05:54;;;;;;;23.95;8.40;;;;;;;-3.07;71.67;101365.87;1714629;83;21125;-73
2020/12/03 04:08:24;;;;;;;22.65;9.10;;;;;;;-3.12;72.00;101364.56;1702339;83;21624;-72
2020/12/03 04:10:52;;;;;;;22.43;9.20;;;;;;;-3.13;71.33;101367.73;1710413;83;21219;-71
2020/12/03 04:13:23;;;;;;;25.25;9.65;;;;;;;-3.22;71.33;101365.87;1717497;83;21232;-72
2020/12/03 04:15:51;;;;;;;24.70;9.10;;;;;;;-3.25;71.92;101368.31;1717480;83;21149;-72
2020/12/03 04:18:25;;;;;;;30.72;11.28;;;;;;;-3.23;71.68;101378.88;1717369;83;21180;-75
2020/12/03 04:20:50;;;;;;;28.20;10.73;;;;;;;-3.28;71.57;101373.94;1716455;83;21164;-73
2020/12/03 04:23:18;;;;;;;26.25;10.00;;;;;;;-3.30;71.94;101377.72;1737288;81;21236;-75
2020/12/03 04:25:47;;;;;;;27.17;10.82;;;;;;;-3.30;72.43;101370.55;1750587;82;21136;-75
2020/12/03 04:28:16;;;;;;;27.83;10.37;;;;;;;-3.32;72.37;101371.17;1749927;81;21173;-70
2020/12/03 04:30:44;;;;;;;25.67;10.10;;;;;;;-3.32;72.22;101375.19;1750203;82;21232;-74
2020/12/03 04:33:12;;;;;;;25.70;10.15;;;;;;;-3.32;72.40;101380.55;1738760;81;21160;-71
2020/12/03 04:35:39;;;;;;;30.37;11.57;;;;;;;-3.35;72.59;101378.12;1731230;83;21132;-71
2020/12/03 04:38:08;;;;;;;28.35;9.95;;;;;;;-3.36;72.94;101384.92;1730622;81;21128;-71
2020/12/03 04:40:40;;;;;;;28.97;10.40;;;;;;;-3.35;72.36;101381.28;1731036;83;21128;-75
2020/12/03 04:43:41;;;;;;;27.70;10.23;;;;;;;-3.35;72.36;101382.14;1734054;81;21557;-75
2020/12/03 04:46:28;;;;;;;34.07;11.43;;;;;;;-3.36;72.04;101392.47;1745356;82;21133;-74
2020/12/03 04:49:36;;;;;;;24.87;10.37;;;;;;;-3.41;72.12;101392.02;1736128;81;21196;-75
2020/12/03 04:52:36;;;;;;;29.70;10.18;;;;;;;-3.39;72.46;101390.05;1712079;83;21564;-70
2020/12/03 04:55:36;;;;;;;33.53;11.20;;;;;;;-3.37;72.69;101390.80;1725898;81;21244;-75
2020/12/03 04:58:12;;;;;;;25.57;10.53;;;;;;;-3.35;72.70;101390.66;1716126;83;21270;-72
2020/12/03 05:00:46;;;;;;;26.20;10.60;;;;;;;-3.35;71.97;101387.49;1722489;82;21156;-71
2020/12/03 05:03:40;;;;;;;22.63;9.33;;;;;;;-3.38;71.97;101399.80;1709922;82;21186;-72
2020/12/03 05:06:41;;;;;;;21.83;9.30;;;;;;;-3.37;72.06;101400.65;1709047;83;21164;-73
2020/12/03 05:09:43;;;;;;;24.53;9.50;;;;;;;-3.35;72.13;101400.88;1621181;86;21683;-71
2020/12/03 05:12:17;;;;;;;31.53;10.60;;;;;;;-3.37;71.53;101397.48;1697397;83;21318;-70
2020/12/03 05:14:55;;;;;;;26.30;10.30;;;;;;;-3.35;72.30;101396.86;1710731;82;21537;-71
2020/12/03 05:17:53;;;;;;;30.47;10.10;;;;;;;-3.31;72.20;101406.31;1722671;83;21544;-71
2020/12/03 05:20:50;;;;;;;24.92;10.60;;;;;;;-3.29;71.85;101408.36;1722527;82;21318;-73
2020/12/03 05:23:24;;;;;;;25.55;10.65;;;;;;;-3.26;71.70;101406.77;1725036;83;21169;-72
2020/12/03 05:25:54;;;;;;;26.93;11.03;;;;;;;-3.27;71.40;101406.91;1709326;82;21252;-71
2020/12/03 05:28:36;;;;;;;26.67;10.20;;;;;;;-3.26;71.71;101413.45;1718944;83;21205;-75
2020/12/03 05:31:23;;;;;;;21.57;9.67;;;;;;;-3.30;71.28;101410.70;1717795;82;21132;-75
2020/12/03 05:33:51;;;;;;;24.15;10.93;;;;;;;-3.30;71.28;101416.05;1716759;82;21136;-76
2020/12/03 05:36:32;;;;;;;27.82;9.95;;;;;;;-3.32;71.60;101420.70;1716640;82;21105;-76
2020/12/03 05:39:03;;;;;;;25.53;9.73;;;;;;;-3.32;71.88;101430.55;1733668;82;21097;-75
2020/12/03 05:41:36;;;;;;;27.17;9.57;;;;;;;-3.28;71.81;101430.15;1717343;82;21161;-76
2020/12/03 05:44:24;;;;;;;26.30;10.43;;;;;;;-3.28;71.83;101424.80;1721312;82;21109;-75
2020/12/03 05:46:52;;;;;;;26.75;10.58;;;;;;;-3.25;71.88;101422.34;1696273;82;21152;-76
2020/12/03 05:49:21;;;;;;;28.60;12.00;;;;;;;-3.23;71.39;101426.59;1700019;82;21135;-77
2020/12/03 05:52:13;;;;;;;30.23;12.47;;;;;;;-3.21;71.93;101429.98;1715236;82;21180;-73
2020/12/03 05:55:00;;;;;;;33.33;12.03;;;;;;;-3.17;72.09;101429.23;1725011;82;21144;-76
2020/12/03 05:57:41;;;;;;;;;;;;;;;-3.15;72.24;101438.46;1733672;82;21129;-76
2020/12/03 06:00:18;;;;;;;33.73;12.27;;;;;;;-3.26;70.96;101438.89;1728033;82;20221;-76
2020/12/03 06:03:26;;;;;;;31.10;13.47;;;;;;;-3.30;71.95;101442.83;1729143;82;21544;-76
2020/12/03 06:06:46;;;;;;;29.97;12.23;;;;;;;-3.28;72.18;101444.02;1736967;82;21254;-73
2020/12/03 06:09:50;;;;;;;33.77;12.37;;;;;;;-3.25;72.48;101444.62;1708503;82;21152;-76
2020/12/03 06:12:51;;;;;;;32.03;12.93;;;;;;;-3.22;72.31;101443.02;1711386;82;21112;-74
2020/12/03 06:16:01;;;;;;;33.97;12.80;;;;;;;-3.18;72.54;101446.27;1706953;83;21536;-76
2020/12/03 06:19:09;;;;;;;39.97;13.33;;;;;;;-3.13;72.58;101443.19;1706829;82;21124;-74
2020/12/03 06:27:33;;;;;;;31.67;12.73;;;;;;;-2.97;72.04;101434.20;1828945;77;22555;-79
2020/12/03 06:30:13;;;;;;;33.10;12.60;;;;;;;-3.01;72.30;101431.44;1770600;78;21148;-78
2020/12/03 06:33:28;;;;;;;34.10;14.03;;;;;;;-3.05;71.96;101421.95;1761234;81;21145;-75
2020/12/03 06:36:16;;;;;;;33.10;12.97;;;;;;;-3.08;72.25;101418.20;1719612;80;21163;-75
2020/12/03 06:39:05;;;;;;;37.00;13.40;;;;;;;-3.10;72.35;101422.36;1719495;80;21227;-76
2020/12/03 06:41:50;;;;;;;31.90;14.93;;;;;;;-3.09;72.42;101413.36;1686262;83;21165;-74
2020/12/03 06:44:45;;;;;;;34.60;14.43;;;;;;;-3.07;72.06;101421.25;1709418;81;21291;-74
2020/12/03 06:47:28;;;;;;;35.87;13.70;;;;;;;-3.08;72.36;101430.25;1723505;83;21587;-73
2020/12/03 06:50:17;;;;;;;31.87;12.80;;;;;;;-3.07;72.54;101428.80;1716310;81;21572;-76
2020/12/03 06:53:20;;;;;;;32.13;12.67;;;;;;;-3.04;72.45;101428.54;1689159;84;21701;-77
2020/12/03 06:56:17;;;;;;;38.20;13.60;;;;;;;-3.03;72.33;101424.86;1700018;81;21631;-75
2020/12/03 06:59:06;;;;;;;32.60;12.30;;;;;;;-3.01;72.55;101424.23;1718730;82;21151;-77
2020/12/03 07:01:56;;;;;;;28.77;12.00;;;;;;;-3.03;71.75;101430.70;1687152;83;21592;-75
2020/12/03 07:05:02;;;;;;;27.00;12.07;;;;;;;-3.04;72.05;101430.36;1720222;83;21203;-75
2020/12/03 07:08:08;;;;;;;31.93;12.10;;;;;;;-3.04;71.49;101431.70;1717218;81;21168;-78
2020/12/03 07:10:58;;;;;;;30.43;11.67;;;;;;;-3.04;72.03;101431.70;1700402;83;21154;-76
2020/12/03 07:13:58;;;;;;;29.40;10.57;;;;;;;-2.98;72.29;101437.36;1706795;82;21156;-77
2020/12/03 07:17:11;;;;;;;26.83;11.00;;;;;;;-2.95;71.57;101438.44;1698462;82;21173;-75
2020/12/03 07:19:50;;;;;;;33.47;11.10;;;;;;;-2.97;71.40;101433.72;1711784;83;21125;-76
2020/12/03 07:22:34;;;;;;;23.90;10.60;;;;;;;-3.01;70.88;101444.84;1696930;82;21686;-75
2020/12/03 07:25:03;;;;;;;29.07;10.87;;;;;;;-3.03;71.55;101445.43;1716139;83;21153;-77
2020/12/03 07:28:07;;;;;;;27.03;11.10;;;;;;;-3.05;71.31;101438.88;1677368;83;21254;-73
2020/12/03 07:30:56;;;;;;;29.60;10.83;;;;;;;-3.07;71.22;101443.53;1720299;83;21232;-76
2020/12/03 07:34:04;;;;;;;28.47;11.60;;;;;;;-3.05;71.71;101446.06;1703360;83;21135;-76
2020/12/03 07:36:47;;;;;;;24.47;10.82;;;;;;;-3.00;72.28;101446.52;1717722;83;21124;-74
2020/12/03 07:39:18;;;;;;;27.67;10.83;;;;;;;-2.96;71.40;101446.63;1709424;82;21176;-77
2020/12/03 07:41:57;;;;;;;29.00;11.70;;;;;;;-2.94;71.59;101454.89;1716160;83;21248;-72
2020/12/03 07:44:43;;;;;;;23.63;10.47;;;;;;;-2.93;71.04;101451.20;1709149;83;21173;-72
2020/12/03 07:47:33;;;;;;;35.50;12.30;;;;;;;-2.91;71.44;101453.77;1719884;83;21172;-72
2020/12/03 07:50:06;;;;;;;27.30;11.03;;;;;;;-2.93;71.49;101451.20;1716038;82;21184;-76
2020/12/03 07:52:36;;;;;;;33.40;11.43;;;;;;;-2.90;71.31;101451.43;1720051;83;21164;-75
2020/12/03 07:55:28;;;;;;;30.47;11.53;;;;;;;-2.90;71.38;101451.43;1707408;83;21638;-74
2020/12/03 07:58:02;;;;;;;32.97;12.27;;;;;;;-2.90;71.25;101444.25;1711073;83;21124;-76
2020/12/03 08:00:46;;;;;;;29.30;12.73;;;;;;;-2.87;71.75;101447.16;1714931;82;21212;-76
2020/12/03 08:03:45;;;;;;;32.17;11.07;;;;;;;-2.83;71.58;101443.21;1713382;83;21148;-75
2020/12/03 08:06:22;;;;;;;27.30;11.07;;;;;;;-2.76;71.85;101447.90;1695935;84;21275;-75
2020/12/03 08:09:04;;;;;;;27.50;11.50;;;;;;;-2.75;71.11;101440.23;1709846;82;21132;-74
2020/12/03 08:12:05;;;;;;;29.07;12.40;;;;;;;-2.75;70.92;101443.39;1708823;83;21173;-76
2020/12/03 08:14:37;;;;;;;30.47;11.60;;;;;;;-2.74;71.18;101437.06;1709878;83;21279;-76
2020/12/03 08:17:26;;;;;;;33.03;14.37;;;;;;;-2.74;71.16;101435.73;1702153;84;21197;-73
2020/12/03 08:20:09;;;;;;;27.53;11.70;;;;;;;-2.72;70.98;101435.95;1708050;83;21123;-76
2020/12/03 08:22:45;;;;;;;31.03;12.77;;;;;;;-2.73;70.62;101434.72;1686960;85;21150;-73
2020/12/03 08:25:21;;;;;;;26.07;10.87;;;;;;;-2.75;71.50;101433.53;1699529;83;21291;-76
2020/12/03 08:28:04;;;;;;;28.40;12.07;;;;;;;-2.73;71.07;101426.20;1705403;83;21183;-75
2020/12/03 08:30:37;;;;;;;26.17;11.00;;;;;;;-2.67;71.62;101430.18;1690092;82;21550;-75
2020/12/03 08:33:24;;;;;;;26.27;10.93;;;;;;;-2.66;71.02;101427.88;1700350;84;21580;-77
2020/12/03 08:35:54;;;;;;;27.93;11.60;;;;;;;-2.66;70.95;101421.99;1698879;83;22465;-74
2020/12/03 08:38:36;;;;;;;26.67;11.70;;;;;;;-2.67;70.80;101423.48;1709473;84;21105;-73
2020/12/03 08:41:08;;;;;;;27.23;11.60;;;;;;;-2.69;71.00;101428.13;1706188;83;21145;-75
2020/12/03 08:43:42;;;;;;;25.83;11.90;;;;;;;-2.67;71.39;101424.34;1669162;84;21255;-73
2020/12/03 08:46:17;;;;;;;26.53;11.80;;;;;;;-2.64;71.32;101415.18;1693652;83;21149;-75
2020/12/03 08:48:44;;;;;;;30.43;12.20;;;;;;;-2.63;71.52;101413.69;1696403;83;21267;-76
2020/12/03 08:51:13;;;;;;;30.10;12.07;;;;;;;-2.62;70.99;101417.22;1724320;81;21128;-74
2020/12/03 08:53:47;;;;;;;28.63;11.63;;;;;;;-2.60;71.07;101416.59;1682562;84;21153;-74
2020/12/03 08:56:24;;;;;;;31.07;11.20;;;;;;;-2.63;71.41;101411.50;1725235;83;21199;-74
2020/12/03 08:59:08;;;;;;;28.23;11.23;;;;;;;-2.61;71.23;101414.39;1685227;83;21275;-76
2020/12/03 09:01:42;;;;;;;27.30;11.60;;;;;;;-2.59;71.21;101401.73;1689021;83;21151;-72
2020/12/03 09:04:10;;;;;;;31.17;11.90;;;;;;;-2.57;71.02;101406.94;1691958;84;21157;-74
2020/12/03 09:06:50;;;;;;;29.48;11.70;;;;;;;-2.57;71.16;101400.24;1695778;83;21204;-77
2020/12/03 09:09:21;;;;;;;34.53;14.57;;;;;;;-2.56;71.40;101400.61;1706783;82;21327;-78
2020/12/03 09:11:50;;;;;;;33.83;12.30;;;;;;;-2.53;71.63;101399.00;1702524;83;21240;-75
2020/12/03 09:14:19;;;;;;;26.97;11.90;;;;;;;-2.51;71.18;101394.84;1701503;82;21185;-78
2020/12/03 09:16:51;;;;;;;27.60;10.73;;;;;;;-2.51;71.27;101403.73;1706190;83;21147;-75
2020/12/03 09:19:43;;;;;;;24.30;11.10;;;;;;;-2.53;70.28;101405.70;1696319;82;21163;-76
2020/12/03 09:22:14;;;;;;;27.17;11.60;;;;;;;-2.62;70.62;101407.84;1721486;81;21694;-77
2020/12/03 09:24:52;;;;;;;36.97;11.97;;;;;;;-2.64;70.80;101396.42;1745626;80;21116;-78
2020/12/03 09:27:24;;;;;;;28.63;11.70;;;;;;;-2.62;71.17;101392.62;1756913;81;21116;-76
2020/12/03 09:29:53;;;;;;;27.58;11.18;;;;;;;-2.61;71.41;101387.59;1758270;80;21111;-76
2020/12/03 09:32:23;;;;;;;25.97;11.87;;;;;;;-2.61;70.95;101382.23;1671924;83;21647;-76
2020/12/03 09:34:56;;;;;;;33.53;12.60;;;;;;;-2.63;70.76;101386.03;1720890;82;21168;-76
2020/12/03 09:37:23;;;;;;;27.43;11.20;;;;;;;-2.62;71.08;101383.73;1705308;83;21149;-77
2020/12/03 09:39:51;;;;;;;29.67;12.07;;;;;;;-2.59;71.33;101382.13;1723521;82;21165;-79
2020/12/03 09:42:20;;;;;;;27.65;12.07;;;;;;;-2.60;70.97;101383.95;1702811;83;21580;-74
2020/12/03 09:44:54;;;;;;;33.13;12.83;;;;;;;-2.59;71.09;101374.08;1698897;83;21161;-75
2020/12/03 09:47:19;;;;;;;36.83;12.57;;;;;;;-2.56;71.22;101377.83;1700402;83;21164;-75
2020/12/03 09:49:48;;;;;;;33.83;12.07;;;;;;;-2.54;71.05;101379.87;1758938;80;21176;-76
2020/12/03 09:52:17;;;;;;;27.87;12.20;;;;;;;-2.53;70.83;101379.39;1758054;80;21148;-78
2020/12/03 09:54:45;;;;;;;29.92;12.40;;;;;;;-2.52;70.63;101383.75;1752933;80;21124;-76
2020/12/03 09:57:13;;;;;;;33.40;13.70;;;;;;;-2.51;70.64;101382.77;1759191;81;21088;-76
2020/12/03 09:59:41;;;;;;;28.17;12.37;;;;;;;-2.55;70.68;101383.53;1693294;84;21145;-78
2020/12/03 10:02:35;;;;;;;26.47;11.60;;;;;;;-2.54;70.98;101377.20;1722714;81;21183;-77
2020/12/03 10:05:27;;;;;;;25.63;11.33;;;;;;;-2.58;71.31;101374.45;1717346;82;21598;-74
2020/12/03 10:08:41;;;;;;;28.63;10.47;;;;;;;-2.56;71.17;101372.47;1654694;82;21167;-70
2020/12/03 10:11:48;;;;;;;37.13;11.90;;;;;;;-2.54;70.94;101368.30;1684624;82;21184;-71
2020/12/03 10:15:10;;;;;;;31.35;13.38;;;;;;;-2.53;70.98;101372.20;1705483;83;21652;-72
2020/12/03 10:18:04;;;;;;;34.77;14.40;;;;;;;-2.56;71.26;101360.41;1699146;83;21116;-74
2020/12/03 10:20:35;;;;;;;40.17;13.40;;;;;;;-2.57;71.12;101368.08;1702129;83;21176;-74
2020/12/03 10:23:35;;;;;;;31.77;13.00;;;;;;;-2.57;71.66;101364.06;1702631;83;21185;-75
2020/12/03 10:26:35;;;;;;;34.07;11.90;;;;;;;-2.54;72.08;101365.14;1760650;80;21234;-74
2020/12/03 10:29:36;;;;;;;30.03;12.17;;;;;;;-2.49;72.01;101367.40;1735972;80;21143;-76
2020/12/03 10:32:11;;;;;;;31.33;13.27;;;;;;;-2.45;71.96;101370.17;1692316;83;21850;-76
2020/12/03 10:34:42;;;;;;;33.30;13.93;;;;;;;-2.45;71.69;101366.98;1699507;82;21204;-75
2020/12/03 10:37:27;;;;;;;29.70;13.97;;;;;;;-2.45;71.55;101357.59;1696146;83;21257;-76
2020/12/03 10:40:18;;;;;;;34.70;14.00;;;;;;;-2.45;71.98;101369.66;1703394;83;21316;-76
2020/12/03 10:43:06;;;;;;;30.40;13.20;;;;;;;-2.47;72.08;101360.91;1705563;83;21172;-76
2020/12/03 10:45:38;;;;;;;28.40;13.00;;;;;;;-2.45;71.71;101361.62;1763546;80;21552;-71
2020/12/03 10:48:21;;;;;;;31.03;12.73;;;;;;;-2.45;71.60;101365.64;1759579;80;21108;-73
2020/12/03 10:51:08;;;;;;;30.53;13.47;;;;;;;-2.45;71.92;101362.13;1763094;80;21127;-72
2020/12/03 10:53:37;;;;;;;30.80;12.15;;;;;;;-2.48;71.89;101360.58;1754226;80;21112;-72
2020/12/03 10:56:07;;;;;;;35.60;13.33;;;;;;;-2.49;72.05;101353.51;1758713;81;21198;-73
2020/12/03 10:59:07;;;;;;;31.67;14.17;;;;;;;-2.46;71.74;101358.60;1762493;80;21135;-72
2020/12/03 11:01:33;;;;;;;32.53;12.13;;;;;;;-2.47;71.72;101356.89;1758813;80;21188;-78
2020/12/03 11:04:05;;;;;;;32.38;13.05;;;;;;;-2.46;71.96;101349.22;1757555;80;21215;-76
2020/12/03 11:06:34;;;;;;;29.87;12.53;;;;;;;-2.45;71.98;101346.88;1721709;82;21751;-76
2020/12/03 11:09:04;;;;;;;34.95;13.22;;;;;;;-2.42;71.96;101347.09;1701014;83;21193;-78
2020/12/03 11:11:36;;;;;;;31.10;12.50;;;;;;;-2.43;71.95;101351.63;1758875;81;21543;-77
2020/12/03 11:14:12;;;;;;;31.63;12.00;;;;;;;-2.45;72.07;101354.91;1755010;80;21195;-77
2020/12/03 11:17:17;;;;;;;29.97;12.17;;;;;;;-2.46;72.24;101347.88;1710832;81;21102;-77
2020/12/03 11:19:52;;;;;;;31.33;12.63;;;;;;;-2.46;71.87;101341.66;1694219;83;21250;-77
2020/12/03 11:22:41;;;;;;;27.57;12.60;;;;;;;-2.46;72.05;101333.13;1723625;82;21164;-76
2020/12/03 11:25:17;;;;;;;27.50;11.73;;;;;;;-2.43;72.08;101334.69;1719309;82;21529;-77
2020/12/03 11:27:43;;;;;;;29.60;12.13;;;;;;;-2.40;72.21;101329.06;1698102;84;21125;-76
2020/12/03 11:30:23;;;;;;;29.57;12.50;;;;;;;-2.39;71.58;101321.35;1757455;80;21198;-77
2020/12/03 11:32:53;;;;;;;36.93;13.07;;;;;;;-2.41;71.42;101318.82;1759256;81;21202;-76
2020/12/03 11:35:27;;;;;;;30.77;12.63;;;;;;;-2.40;71.36;101320.50;1754541;80;21100;-76
2020/12/03 11:37:58;;;;;;;26.63;11.77;;;;;;;-2.41;70.99;101330.03;1760419;81;21562;-77
2020/12/03 11:40:43;;;;;;;28.23;11.50;;;;;;;-2.48;70.95;101328.41;1758327;80;21072;-74
2020/12/03 11:48:42;;;;;;;39.13;13.13;;;;;;;-2.49;71.66;101336.58;1711047;81;21701;-74
2020/12/03 11:51:33;;;;;;;24.53;11.70;;;;;;;-2.50;71.24;101333.56;1755438;80;21664;-73
2020/12/03 11:54:06;;;;;;;27.80;12.47;;;;;;;-2.54;70.87;101334.31;1752434;80;21199;-76
2020/12/03 11:56:37;;;;;;;33.07;13.17;;;;;;;-2.57;71.24;101341.28;1753704;80;21163;-77
2020/12/03 11:59:20;;;;;;;27.57;12.50;;;;;;;-2.57;71.18;101354.69;1753851;80;21132;-79
2020/12/03 12:01:57;;;;;;;29.47;13.00;;;;;;;-2.58;71.16;101346.31;1750811;80;21237;-76
2020/12/03 12:04:46;;;;;;;27.40;12.90;;;;;;;-2.56;71.66;101344.33;1753223;80;21602;-73
2020/12/03 12:07:17;;;;;;;32.20;13.20;;;;;;;-2.52;71.61;101342.20;1753625;80;21283;-74
2020/12/03 12:12:28;;;;;;;40.93;14.30;;;;;;;-2.52;71.92;101348.91;1691042;83;21213;-79